createdAt,value
2017-05-19T00:00:02.707Z,997.95
2017-05-19T00:10:03.250Z,997.87
2017-05-19T00:20:03.291Z,997.79
2017-05-19T00:30:02.767Z,997.9
2017-05-19T00:40:03.276Z,997.96
2017-05-19T00:50:03.162Z,997.98
2017-05-19T01:00:02.623Z,997.94
2017-05-19T01:10:03.089Z,997.88
2017-05-19T01:20:03.143Z,997.8
2017-05-19T01:30:02.627Z,997.82
2017-05-19T01:40:03.117Z,997.78
2017-05-19T01:50:03.012Z,997.8
2017-05-19T02:00:02.470Z,997.85
2017-05-19T02:10:02.944Z,997.8
2017-05-19T02:20:02.993Z,997.57
2017-05-19T02:30:02.456Z,997.44
2017-05-19T02:40:02.935Z,997.34
2017-05-19T02:50:02.836Z,997.32
2017-05-19T03:00:03.283Z,997.13
2017-05-19T03:10:02.766Z,997.21
2017-05-19T03:20:02.782Z,997.18
2017-05-19T03:30:03.251Z,997.1
2017-05-19T03:40:02.706Z,997.16
2017-05-19T03:50:02.583Z,997.12
2017-05-19T04:00:03.057Z,997.08
2017-05-19T04:10:02.448Z,997.23
2017-05-19T04:20:03.060Z,997.38
2017-05-19T04:30:02.389Z,997.49
2017-05-19T04:40:02.799Z,997.68
2017-05-19T04:50:02.766Z,997.64
2017-05-19T05:00:02.828Z,997.33
2017-05-19T05:10:03.210Z,997.36
2017-05-19T05:20:02.828Z,997.55
2017-05-19T05:30:03.146Z,997.7
2017-05-19T05:40:02.503Z,997.65
2017-05-19T05:50:03.014Z,997.61
2017-05-19T06:00:03.029Z,997.47
2017-05-19T06:10:03.177Z,997.46
2017-05-19T06:20:02.732Z,997.37
2017-05-19T06:30:02.960Z,997.43
2017-05-19T06:40:03.029Z,997.37
2017-05-19T06:50:02.687Z,997.54
2017-05-19T07:00:02.827Z,997.57
2017-05-19T07:20:03.234Z,997.48
2017-05-19T07:30:03.356Z,997.46
2017-05-19T07:40:02.972Z,997.38
2017-05-19T07:50:03.302Z,997.47
2017-05-19T08:00:06.387Z,997.85
2017-05-19T08:10:02.883Z,997.83
2017-05-19T08:20:02.424Z,997.89
2017-05-19T08:30:02.693Z,997.96
2017-05-19T08:40:02.470Z,997.98
2017-05-19T08:50:02.450Z,997.84
2017-05-19T09:00:02.495Z,997.7
2017-05-19T09:10:03.101Z,997.55
2017-05-19T09:20:03.280Z,997.86
2017-05-19T09:30:02.587Z,997.92
2017-05-19T09:40:03.138Z,997.96
2017-05-19T09:50:03.246Z,997.83
2017-05-19T10:00:03.290Z,997.62
2017-05-19T10:10:03.011Z,997.45
2017-05-19T10:20:02.830Z,997.17
2017-05-19T10:30:03.168Z,997.11
2017-05-19T10:40:02.560Z,996.67
2017-05-19T10:50:02.350Z,997.19
2017-05-19T11:00:02.405Z,997.23
2017-05-19T11:10:02.927Z,997.48
2017-05-19T11:20:02.827Z,997.6
2017-05-19T11:30:03.108Z,997.64
2017-05-19T11:40:02.555Z,997.78
2017-05-19T11:50:02.974Z,997.62
2017-05-19T12:00:03.009Z,997.87
2017-05-19T12:10:02.491Z,998.02
2017-05-19T12:20:02.751Z,998
2017-05-19T12:30:03.171Z,997.88
2017-05-19T12:40:03.359Z,997.8
2017-05-19T12:50:02.508Z,997.97
2017-05-19T13:00:02.574Z,997.9
2017-05-19T13:10:03.067Z,997.99
2017-05-19T13:20:03.262Z,997.94
2017-05-19T13:30:02.931Z,998.06
2017-05-19T13:40:02.722Z,997.86
2017-05-19T13:50:03.321Z,997.76
2017-05-19T14:00:02.371Z,997.79
2017-05-19T14:10:02.449Z,998.03
2017-05-19T14:20:02.843Z,998.04
2017-05-19T14:30:03.239Z,997.94
2017-05-19T14:40:03.319Z,998.19
2017-05-19T14:50:02.610Z,998.31
2017-05-19T15:00:02.674Z,998.19
2017-05-19T15:10:02.780Z,998.25
2017-05-19T15:20:02.511Z,998.19
2017-05-19T15:30:02.831Z,998.1
2017-05-19T15:40:03.184Z,998.19
2017-05-19T15:50:02.798Z,998
2017-05-19T16:00:02.928Z,998.12
2017-05-19T16:10:02.874Z,998.19
2017-05-19T16:20:02.627Z,998.11
2017-05-19T16:30:02.660Z,998.23
2017-05-19T16:40:03.168Z,998.36
2017-05-19T16:50:02.796Z,998.62
2017-05-19T17:00:02.856Z,998.72
2017-05-19T17:10:02.370Z,998.83
2017-05-19T17:20:03.226Z,999.08
2017-05-19T17:30:03.018Z,999.52
2017-05-19T17:40:03.048Z,999.6
2017-05-19T17:50:02.640Z,999.58
2017-05-19T18:00:02.693Z,999.81
2017-05-19T18:10:02.372Z,1000.32
2017-05-19T18:20:02.633Z,999.84
2017-05-19T18:30:03.111Z,1000.06
2017-05-19T18:40:02.614Z,1000.3
2017-05-19T18:50:02.706Z,1000.77
2017-05-19T19:00:03.152Z,1000.36
2017-05-19T19:10:02.637Z,1000.06
2017-05-19T19:20:02.897Z,1000.28
2017-05-19T19:30:02.346Z,1000.7
2017-05-19T19:40:02.847Z,1000.86
2017-05-19T19:50:02.800Z,1001.32
2017-05-19T20:00:03.292Z,1001.25
2017-05-19T20:10:02.749Z,1001.19
2017-05-19T20:20:02.989Z,1001.26
2017-05-19T20:30:02.571Z,1001.33
2017-05-19T20:40:03.080Z,1001.54
2017-05-19T20:50:02.441Z,1001.63
2017-05-19T21:00:02.944Z,1001.31
2017-05-19T21:10:02.450Z,1001.61
2017-05-19T21:20:02.729Z,1001.6
2017-05-19T21:30:03.139Z,1001.55
2017-05-19T21:40:02.613Z,1001.79
2017-05-19T21:50:02.890Z,1002.16
2017-05-19T22:00:02.399Z,1002.17
2017-05-19T22:10:02.877Z,1002.27
2017-05-19T22:20:03.162Z,1002.54
2017-05-19T22:30:02.630Z,1002.48
2017-05-19T22:40:03.079Z,1002.74
2017-05-19T22:50:03.226Z,1002.89
2017-05-19T23:00:02.719Z,1002.99
2017-05-19T23:10:03.202Z,1003.09
2017-05-19T23:20:02.461Z,1002.75
2017-05-19T23:30:02.948Z,1002.57
2017-05-19T23:40:02.441Z,1002.53
2017-05-19T23:50:02.514Z,1002.54
